sensor_id;sensor_type;location;lat;lon;timestamp;P1;durP1;ratioP1;P2;durP2;ratioP2
31438;SDS011;18062;48.872;9.220;2024-02-26T00:02:06;1.50;;;1.20;;
31438;SDS011;18062;48.872;9.220;2024-02-26T00:04:32;1.57;;;1.27;;
31438;SDS011;18062;48.872;9.220;2024-02-26T00:06:58;3.00;;;1.20;;
31438;SDS011;18062;48.872;9.220;2024-02-26T00:09:24;1.60;;;1.30;;
31438;SDS011;18062;48.872;9.220;2024-02-26T00:11:50;1.93;;;1.40;;
31438;SDS011;18062;48.872;9.220;2024-02-26T00:14:16;2.20;;;1.43;;
31438;SDS011;18062;48.872;9.220;2024-02-26T00:16:42;1.23;;;1.13;;
31438;SDS011;18062;48.872;9.220;2024-02-26T00:19:10;1.47;;;1.10;;
31438;SDS011;18062;48.872;9.220;2024-02-26T00:21:39;1.97;;;1.50;;
31438;SDS011;18062;48.872;9.220;2024-02-26T00:24:06;1.30;;;1.20;;
31438;SDS011;18062;48.872;9.220;2024-02-26T00:26:32;1.53;;;1.20;;
31438;SDS011;18062;48.872;9.220;2024-02-26T00:28:58;1.70;;;1.27;;
31438;SDS011;18062;48.872;9.220;2024-02-26T00:31:24;1.70;;;1.40;;
31438;SDS011;18062;48.872;9.220;2024-02-26T00:33:50;1.60;;;1.30;;
31438;SDS011;18062;48.872;9.220;2024-02-26T00:36:16;2.73;;;1.33;;
31438;SDS011;18062;48.872;9.220;2024-02-26T00:38:43;1.57;;;1.17;;
31438;SDS011;18062;48.872;9.220;2024-02-26T00:41:15;1.43;;;1.23;;
31438;SDS011;18062;48.872;9.220;2024-02-26T00:43:41;1.33;;;1.20;;
31438;SDS011;18062;48.872;9.220;2024-02-26T00:46:07;1.83;;;1.00;;
31438;SDS011;18062;48.872;9.220;2024-02-26T00:48:33;1.30;;;1.20;;
31438;SDS011;18062;48.872;9.220;2024-02-26T00:50:59;1.67;;;1.10;;
31438;SDS011;18062;48.872;9.220;2024-02-26T00:53:25;1.27;;;1.17;;
31438;SDS011;18062;48.872;9.220;2024-02-26T00:55:51;1.83;;;1.40;;
31438;SDS011;18062;48.872;9.220;2024-02-26T00:58:17;1.10;;;1.00;;
31438;SDS011;18062;48.872;9.220;2024-02-26T01:00:44;1.10;;;1.00;;
31438;SDS011;18062;48.872;9.220;2024-02-26T01:03:10;1.37;;;1.27;;
31438;SDS011;18062;48.872;9.220;2024-02-26T01:05:36;1.50;;;1.30;;
31438;SDS011;18062;48.872;9.220;2024-02-26T01:08:03;1.60;;;1.10;;
31438;SDS011;18062;48.872;9.220;2024-02-26T01:10:29;1.10;;;1.00;;
31438;SDS011;18062;48.872;9.220;2024-02-26T01:12:56;1.30;;;1.20;;
31438;SDS011;18062;48.872;9.220;2024-02-26T01:15:22;1.17;;;1.00;;
31438;SDS011;18062;48.872;9.220;2024-02-26T01:17:49;1.20;;;1.10;;
31438;SDS011;18062;48.872;9.220;2024-02-26T01:20:18;1.53;;;1.03;;
31438;SDS011;18062;48.872;9.220;2024-02-26T01:22:44;1.87;;;1.53;;
31438;SDS011;18062;48.872;9.220;2024-02-26T01:25:10;1.07;;;0.97;;
31438;SDS011;18062;48.872;9.220;2024-02-26T01:27:37;2.80;;;1.13;;
31438;SDS011;18062;48.872;9.220;2024-02-26T01:30:03;2.10;;;1.40;;
31438;SDS011;18062;48.872;9.220;2024-02-26T01:32:29;1.33;;;1.10;;
31438;SDS011;18062;48.872;9.220;2024-02-26T01:34:55;1.97;;;1.40;;
31438;SDS011;18062;48.872;9.220;2024-02-26T01:37:21;1.37;;;1.27;;
31438;SDS011;18062;48.872;9.220;2024-02-26T01:39:51;1.27;;;1.10;;
31438;SDS011;18062;48.872;9.220;2024-02-26T01:42:17;1.30;;;1.20;;
31438;SDS011;18062;48.872;9.220;2024-02-26T01:44:43;1.37;;;1.27;;
31438;SDS011;18062;48.872;9.220;2024-02-26T01:47:10;1.47;;;1.30;;
31438;SDS011;18062;48.872;9.220;2024-02-26T01:49:37;1.20;;;1.10;;
31438;SDS011;18062;48.872;9.220;2024-02-26T01:52:04;1.20;;;1.10;;
31438;SDS011;18062;48.872;9.220;2024-02-26T01:54:30;1.10;;;1.00;;
31438;SDS011;18062;48.872;9.220;2024-02-26T01:56:56;0.83;;;0.83;;
31438;SDS011;18062;48.872;9.220;2024-02-26T01:59:23;0.90;;;0.90;;
31438;SDS011;18062;48.872;9.220;2024-02-26T02:01:51;1.50;;;1.37;;
31438;SDS011;18062;48.872;9.220;2024-02-26T02:04:19;1.47;;;1.37;;
31438;SDS011;18062;48.872;9.220;2024-02-26T02:06:45;1.97;;;1.30;;
31438;SDS011;18062;48.872;9.220;2024-02-26T02:09:11;1.47;;;1.17;;
31438;SDS011;18062;48.872;9.220;2024-02-26T02:11:37;1.63;;;1.30;;
31438;SDS011;18062;48.872;9.220;2024-02-26T02:14:03;1.27;;;0.90;;
31438;SDS011;18062;48.872;9.220;2024-02-26T02:16:29;2.60;;;1.10;;
31438;SDS011;18062;48.872;9.220;2024-02-26T02:18:55;1.80;;;1.10;;
31438;SDS011;18062;48.872;9.220;2024-02-26T02:21:21;1.97;;;1.20;;
31438;SDS011;18062;48.872;9.220;2024-02-26T02:23:47;1.10;;;1.00;;
31438;SDS011;18062;48.872;9.220;2024-02-26T02:26:14;1.67;;;1.00;;
31438;SDS011;18062;48.872;9.220;2024-02-26T02:28:40;1.40;;;1.00;;
31438;SDS011;18062;48.872;9.220;2024-02-26T02:31:07;1.53;;;1.10;;
31438;SDS011;18062;48.872;9.220;2024-02-26T02:33:34;1.80;;;1.20;;
31438;SDS011;18062;48.872;9.220;2024-02-26T02:36:00;1.13;;;1.03;;
31438;SDS011;18062;48.872;9.220;2024-02-26T02:38:26;1.13;;;1.03;;
31438;SDS011;18062;48.872;9.220;2024-02-26T02:40:54;1.23;;;1.13;;
31438;SDS011;18062;48.872;9.220;2024-02-26T02:43:20;1.10;;;1.00;;
31438;SDS011;18062;48.872;9.220;2024-02-26T02:45:46;1.17;;;1.07;;
31438;SDS011;18062;48.872;9.220;2024-02-26T02:48:12;1.20;;;1.10;;
31438;SDS011;18062;48.872;9.220;2024-02-26T02:50:38;1.63;;;1.00;;
31438;SDS011;18062;48.872;9.220;2024-02-26T02:53:05;1.23;;;1.00;;
31438;SDS011;18062;48.872;9.220;2024-02-26T02:55:31;1.93;;;1.30;;
31438;SDS011;18062;48.872;9.220;2024-02-26T02:57:57;3.47;;;1.40;;
31438;SDS011;18062;48.872;9.220;2024-02-26T03:00:23;1.77;;;1.40;;
31438;SDS011;18062;48.872;9.220;2024-02-26T03:02:49;2.50;;;1.60;;
31438;SDS011;18062;48.872;9.220;2024-02-26T03:05:15;1.50;;;1.20;;
31438;SDS011;18062;48.872;9.220;2024-02-26T03:07:41;1.27;;;1.17;;
31438;SDS011;18062;48.872;9.220;2024-02-26T03:10:08;2.53;;;1.20;;
31438;SDS011;18062;48.872;9.220;2024-02-26T03:12:34;1.40;;;1.30;;
31438;SDS011;18062;48.872;9.220;2024-02-26T03:15:00;1.57;;;1.47;;
31438;SDS011;18062;48.872;9.220;2024-02-26T03:17:29;1.40;;;1.30;;
31438;SDS011;18062;48.872;9.220;2024-02-26T03:19:55;1.20;;;1.10;;
31438;SDS011;18062;48.872;9.220;2024-02-26T03:22:21;1.20;;;1.03;;
31438;SDS011;18062;48.872;9.220;2024-02-26T03:24:47;1.20;;;1.10;;
31438;SDS011;18062;48.872;9.220;2024-02-26T03:27:14;1.67;;;1.23;;
31438;SDS011;18062;48.872;9.220;2024-02-26T03:29:40;2.63;;;1.10;;
31438;SDS011;18062;48.872;9.220;2024-02-26T03:32:06;1.53;;;1.43;;
31438;SDS011;18062;48.872;9.220;2024-02-26T03:34:32;4.33;;;1.57;;
31438;SDS011;18062;48.872;9.220;2024-02-26T03:37:01;1.73;;;1.37;;
31438;SDS011;18062;48.872;9.220;2024-02-26T03:39:27;1.77;;;1.40;;
31438;SDS011;18062;48.872;9.220;2024-02-26T03:41:53;1.17;;;1.10;;
31438;SDS011;18062;48.872;9.220;2024-02-26T03:44:19;1.30;;;1.20;;
31438;SDS011;18062;48.872;9.220;2024-02-26T03:46:45;1.33;;;1.13;;
31438;SDS011;18062;48.872;9.220;2024-02-26T03:49:12;1.30;;;1.20;;
31438;SDS011;18062;48.872;9.220;2024-02-26T03:51:38;1.53;;;1.33;;
31438;SDS011;18062;48.872;9.220;2024-02-26T03:54:04;1.30;;;1.20;;
31438;SDS011;18062;48.872;9.220;2024-02-26T03:56:30;1.40;;;1.30;;
31438;SDS011;18062;48.872;9.220;2024-02-26T03:58:56;1.43;;;1.30;;
31438;SDS011;18062;48.872;9.220;2024-02-26T04:01:24;1.67;;;1.57;;
31438;SDS011;18062;48.872;9.220;2024-02-26T04:03:50;1.60;;;1.50;;
31438;SDS011;18062;48.872;9.220;2024-02-26T04:06:17;1.53;;;1.40;;
31438;SDS011;18062;48.872;9.220;2024-02-26T04:08:45;1.53;;;1.27;;
31438;SDS011;18062;48.872;9.220;2024-02-26T04:11:11;1.60;;;1.50;;
31438;SDS011;18062;48.872;9.220;2024-02-26T04:13:38;1.60;;;1.50;;
31438;SDS011;18062;48.872;9.220;2024-02-26T04:16:05;2.50;;;1.30;;
31438;SDS011;18062;48.872;9.220;2024-02-26T04:18:31;2.23;;;1.40;;
31438;SDS011;18062;48.872;9.220;2024-02-26T04:20:57;1.93;;;1.30;;
31438;SDS011;18062;48.872;9.220;2024-02-26T04:23:23;1.60;;;1.37;;
31438;SDS011;18062;48.872;9.220;2024-02-26T04:25:49;2.73;;;1.60;;
31438;SDS011;18062;48.872;9.220;2024-02-26T04:28:15;1.63;;;1.30;;
31438;SDS011;18062;48.872;9.220;2024-02-26T04:30:41;2.03;;;1.40;;
31438;SDS011;18062;48.872;9.220;2024-02-26T04:33:07;1.60;;;1.50;;
31438;SDS011;18062;48.872;9.220;2024-02-26T04:35:33;1.43;;;1.33;;
31438;SDS011;18062;48.872;9.220;2024-02-26T04:38:02;1.33;;;1.20;;
31438;SDS011;18062;48.872;9.220;2024-02-26T04:40:28;1.93;;;1.40;;
31438;SDS011;18062;48.872;9.220;2024-02-26T04:42:54;1.43;;;1.17;;
31438;SDS011;18062;48.872;9.220;2024-02-26T04:45:21;1.77;;;1.50;;
31438;SDS011;18062;48.872;9.220;2024-02-26T04:47:47;1.07;;;0.90;;
31438;SDS011;18062;48.872;9.220;2024-02-26T04:50:13;1.23;;;1.10;;
31438;SDS011;18062;48.872;9.220;2024-02-26T04:52:39;1.57;;;1.10;;
31438;SDS011;18062;48.872;9.220;2024-02-26T04:55:05;1.90;;;1.23;;
31438;SDS011;18062;48.872;9.220;2024-02-26T04:57:31;2.20;;;1.37;;
31438;SDS011;18062;48.872;9.220;2024-02-26T04:59:57;1.10;;;1.00;;
31438;SDS011;18062;48.872;9.220;2024-02-26T05:02:23;2.40;;;1.40;;
31438;SDS011;18062;48.872;9.220;2024-02-26T05:04:49;1.53;;;1.13;;
31438;SDS011;18062;48.872;9.220;2024-02-26T05:07:15;2.20;;;1.20;;
31438;SDS011;18062;48.872;9.220;2024-02-26T05:09:44;1.40;;;1.30;;
31438;SDS011;18062;48.872;9.220;2024-02-26T05:12:10;1.40;;;1.27;;
31438;SDS011;18062;48.872;9.220;2024-02-26T05:14:36;2.53;;;1.20;;
31438;SDS011;18062;48.872;9.220;2024-02-26T05:17:02;1.90;;;1.17;;
31438;SDS011;18062;48.872;9.220;2024-02-26T05:19:28;1.10;;;1.00;;
31438;SDS011;18062;48.872;9.220;2024-02-26T05:21:54;1.30;;;1.20;;
31438;SDS011;18062;48.872;9.220;2024-02-26T05:24:21;2.57;;;1.40;;
31438;SDS011;18062;48.872;9.220;2024-02-26T05:26:48;4.90;;;1.40;;
31438;SDS011;18062;48.872;9.220;2024-02-26T05:29:14;1.37;;;1.20;;
31438;SDS011;18062;48.872;9.220;2024-02-26T05:31:43;1.50;;;1.10;;
31438;SDS011;18062;48.872;9.220;2024-02-26T05:34:09;1.27;;;1.00;;
31438;SDS011;18062;48.872;9.220;2024-02-26T05:36:35;1.17;;;1.07;;
31438;SDS011;18062;48.872;9.220;2024-02-26T05:39:01;1.30;;;1.20;;
31438;SDS011;18062;48.872;9.220;2024-02-26T05:41:28;1.47;;;1.03;;
31438;SDS011;18062;48.872;9.220;2024-02-26T05:43:55;1.40;;;1.20;;
31438;SDS011;18062;48.872;9.220;2024-02-26T05:46:21;1.17;;;1.07;;
31438;SDS011;18062;48.872;9.220;2024-02-26T05:48:48;2.17;;;1.10;;
31438;SDS011;18062;48.872;9.220;2024-02-26T05:51:14;1.17;;;0.90;;
31438;SDS011;18062;48.872;9.220;2024-02-26T05:53:40;1.63;;;1.10;;
31438;SDS011;18062;48.872;9.220;2024-02-26T05:56:07;1.60;;;1.10;;
31438;SDS011;18062;48.872;9.220;2024-02-26T05:58:33;1.87;;;1.50;;
31438;SDS011;18062;48.872;9.220;2024-02-26T06:00:59;2.50;;;1.30;;
31438;SDS011;18062;48.872;9.220;2024-02-26T06:03:27;1.90;;;1.30;;
31438;SDS011;18062;48.872;9.220;2024-02-26T06:05:54;1.70;;;1.50;;
31438;SDS011;18062;48.872;9.220;2024-02-26T06:08:20;1.80;;;1.60;;
31438;SDS011;18062;48.872;9.220;2024-02-26T06:10:46;1.63;;;1.30;;
31438;SDS011;18062;48.872;9.220;2024-02-26T06:13:12;2.50;;;1.40;;
31438;SDS011;18062;48.872;9.220;2024-02-26T06:15:38;1.60;;;1.13;;
31438;SDS011;18062;48.872;9.220;2024-02-26T06:18:04;2.03;;;1.53;;
31438;SDS011;18062;48.872;9.220;2024-02-26T06:20:30;1.50;;;1.40;;
31438;SDS011;18062;48.872;9.220;2024-02-26T06:22:56;3.17;;;1.47;;
31438;SDS011;18062;48.872;9.220;2024-02-26T06:25:22;2.20;;;1.50;;
31438;SDS011;18062;48.872;9.220;2024-02-26T06:27:48;1.90;;;1.70;;
31438;SDS011;18062;48.872;9.220;2024-02-26T06:30:14;3.20;;;1.60;;
31438;SDS011;18062;48.872;9.220;2024-02-26T06:32:40;1.97;;;1.60;;
31438;SDS011;18062;48.872;9.220;2024-02-26T06:35:06;3.57;;;1.90;;
31438;SDS011;18062;48.872;9.220;2024-02-26T06:37:34;1.53;;;1.30;;
31438;SDS011;18062;48.872;9.220;2024-02-26T06:40:03;1.40;;;1.20;;
31438;SDS011;18062;48.872;9.220;2024-02-26T06:42:31;2.80;;;2.20;;
31438;SDS011;18062;48.872;9.220;2024-02-26T06:44:57;2.20;;;1.90;;
31438;SDS011;18062;48.872;9.220;2024-02-26T06:47:23;3.80;;;2.80;;
31438;SDS011;18062;48.872;9.220;2024-02-26T06:49:49;3.80;;;2.37;;
31438;SDS011;18062;48.872;9.220;2024-02-26T06:52:15;2.83;;;2.23;;
31438;SDS011;18062;48.872;9.220;2024-02-26T06:54:41;4.97;;;3.03;;
31438;SDS011;18062;48.872;9.220;2024-02-26T06:57:10;5.23;;;2.83;;
31438;SDS011;18062;48.872;9.220;2024-02-26T06:59:36;2.50;;;2.30;;
31438;SDS011;18062;48.872;9.220;2024-02-26T07:02:02;3.03;;;2.43;;
31438;SDS011;18062;48.872;9.220;2024-02-26T07:04:28;4.00;;;2.60;;
31438;SDS011;18062;48.872;9.220;2024-02-26T07:06:56;2.40;;;2.10;;
31438;SDS011;18062;48.872;9.220;2024-02-26T07:09:22;2.37;;;1.70;;
31438;SDS011;18062;48.872;9.220;2024-02-26T07:11:48;2.50;;;2.00;;
31438;SDS011;18062;48.872;9.220;2024-02-26T07:14:14;6.63;;;2.30;;
31438;SDS011;18062;48.872;9.220;2024-02-26T07:16:40;4.23;;;1.77;;
31438;SDS011;18062;48.872;9.220;2024-02-26T07:19:06;1.63;;;1.50;;
31438;SDS011;18062;48.872;9.220;2024-02-26T07:21:32;2.27;;;1.63;;
31438;SDS011;18062;48.872;9.220;2024-02-26T07:23:58;2.60;;;2.10;;
31438;SDS011;18062;48.872;9.220;2024-02-26T07:26:24;1.53;;;1.43;;
31438;SDS011;18062;48.872;9.220;2024-02-26T07:28:51;3.97;;;1.70;;
31438;SDS011;18062;48.872;9.220;2024-02-26T07:31:17;2.03;;;1.60;;
31438;SDS011;18062;48.872;9.220;2024-02-26T07:33:44;2.50;;;1.57;;
31438;SDS011;18062;48.872;9.220;2024-02-26T07:36:10;2.03;;;1.70;;
31438;SDS011;18062;48.872;9.220;2024-02-26T07:38:36;3.07;;;1.90;;
31438;SDS011;18062;48.872;9.220;2024-02-26T07:41:02;2.27;;;2.00;;
31438;SDS011;18062;48.872;9.220;2024-02-26T07:43:28;3.73;;;2.27;;
31438;SDS011;18062;48.872;9.220;2024-02-26T07:45:54;1.77;;;1.67;;
31438;SDS011;18062;48.872;9.220;2024-02-26T07:48:20;2.20;;;1.90;;
31438;SDS011;18062;48.872;9.220;2024-02-26T07:50:47;2.97;;;2.20;;
31438;SDS011;18062;48.872;9.220;2024-02-26T07:53:13;3.47;;;2.47;;
31438;SDS011;18062;48.872;9.220;2024-02-26T07:55:39;3.23;;;1.93;;
31438;SDS011;18062;48.872;9.220;2024-02-26T07:58:05;2.80;;;1.93;;
31438;SDS011;18062;48.872;9.220;2024-02-26T08:00:31;6.97;;;2.20;;
31438;SDS011;18062;48.872;9.220;2024-02-26T08:02:57;2.47;;;2.00;;
31438;SDS011;18062;48.872;9.220;2024-02-26T08:05:23;2.37;;;2.03;;
31438;SDS011;18062;48.872;9.220;2024-02-26T08:07:50;2.63;;;1.90;;
31438;SDS011;18062;48.872;9.220;2024-02-26T08:10:16;2.17;;;1.70;;
31438;SDS011;18062;48.872;9.220;2024-02-26T08:12:42;3.20;;;2.10;;
31438;SDS011;18062;48.872;9.220;2024-02-26T08:15:13;2.50;;;2.23;;
31438;SDS011;18062;48.872;9.220;2024-02-26T08:17:39;2.50;;;1.80;;
31438;SDS011;18062;48.872;9.220;2024-02-26T08:20:05;2.40;;;2.20;;
31438;SDS011;18062;48.872;9.220;2024-02-26T08:22:31;4.13;;;3.17;;
31438;SDS011;18062;48.872;9.220;2024-02-26T08:24:58;4.73;;;3.30;;
31438;SDS011;18062;48.872;9.220;2024-02-26T08:27:24;5.00;;;3.43;;
31438;SDS011;18062;48.872;9.220;2024-02-26T08:29:51;3.17;;;2.87;;
31438;SDS011;18062;48.872;9.220;2024-02-26T08:32:17;4.30;;;2.67;;
31438;SDS011;18062;48.872;9.220;2024-02-26T08:34:43;3.07;;;2.30;;
31438;SDS011;18062;48.872;9.220;2024-02-26T08:37:09;3.37;;;2.30;;
31438;SDS011;18062;48.872;9.220;2024-02-26T08:39:35;2.73;;;2.43;;
31438;SDS011;18062;48.872;9.220;2024-02-26T08:42:01;3.13;;;2.33;;
31438;SDS011;18062;48.872;9.220;2024-02-26T08:44:27;2.20;;;2.00;;
31438;SDS011;18062;48.872;9.220;2024-02-26T08:46:53;4.40;;;3.37;;
31438;SDS011;18062;48.872;9.220;2024-02-26T08:49:19;4.30;;;2.60;;
31438;SDS011;18062;48.872;9.220;2024-02-26T08:51:45;4.07;;;2.20;;
31438;SDS011;18062;48.872;9.220;2024-02-26T08:54:11;3.23;;;2.43;;
31438;SDS011;18062;48.872;9.220;2024-02-26T08:56:37;4.60;;;2.67;;
31438;SDS011;18062;48.872;9.220;2024-02-26T08:59:03;3.33;;;2.00;;
31438;SDS011;18062;48.872;9.220;2024-02-26T09:01:29;2.90;;;1.90;;
31438;SDS011;18062;48.872;9.220;2024-02-26T09:03:55;2.53;;;1.77;;
31438;SDS011;18062;48.872;9.220;2024-02-26T09:06:21;4.43;;;2.13;;
31438;SDS011;18062;48.872;9.220;2024-02-26T09:08:47;2.67;;;1.80;;
31438;SDS011;18062;48.872;9.220;2024-02-26T09:11:13;2.73;;;1.90;;
31438;SDS011;18062;48.872;9.220;2024-02-26T09:13:39;2.90;;;2.00;;
31438;SDS011;18062;48.872;9.220;2024-02-26T09:16:06;2.23;;;1.97;;
31438;SDS011;18062;48.872;9.220;2024-02-26T09:18:32;2.70;;;2.20;;
31438;SDS011;18062;48.872;9.220;2024-02-26T09:20:58;2.07;;;1.70;;
31438;SDS011;18062;48.872;9.220;2024-02-26T09:23:24;2.33;;;2.00;;
31438;SDS011;18062;48.872;9.220;2024-02-26T09:25:50;2.47;;;2.10;;
31438;SDS011;18062;48.872;9.220;2024-02-26T09:28:16;3.80;;;1.83;;
31438;SDS011;18062;48.872;9.220;2024-02-26T09:30:43;2.10;;;1.70;;
31438;SDS011;18062;48.872;9.220;2024-02-26T09:33:09;2.03;;;1.73;;
31438;SDS011;18062;48.872;9.220;2024-02-26T09:35:35;2.47;;;2.00;;
31438;SDS011;18062;48.872;9.220;2024-02-26T09:38:01;1.90;;;1.67;;
31438;SDS011;18062;48.872;9.220;2024-02-26T09:40:27;1.97;;;1.77;;
31438;SDS011;18062;48.872;9.220;2024-02-26T09:42:56;3.23;;;2.23;;
31438;SDS011;18062;48.872;9.220;2024-02-26T09:45:25;4.10;;;2.30;;
31438;SDS011;18062;48.872;9.220;2024-02-26T09:47:52;2.10;;;1.90;;
31438;SDS011;18062;48.872;9.220;2024-02-26T09:50:20;2.20;;;2.00;;
31438;SDS011;18062;48.872;9.220;2024-02-26T09:52:50;2.17;;;1.80;;
31438;SDS011;18062;48.872;9.220;2024-02-26T09:55:18;1.83;;;1.73;;
31438;SDS011;18062;48.872;9.220;2024-02-26T09:57:45;2.57;;;1.90;;
31438;SDS011;18062;48.872;9.220;2024-02-26T10:00:15;2.50;;;2.03;;
31438;SDS011;18062;48.872;9.220;2024-02-26T10:02:42;2.97;;;2.00;;
31438;SDS011;18062;48.872;9.220;2024-02-26T10:05:08;2.13;;;1.80;;
31438;SDS011;18062;48.872;9.220;2024-02-26T10:07:36;2.93;;;1.90;;
31438;SDS011;18062;48.872;9.220;2024-02-26T10:10:03;1.70;;;1.60;;
31438;SDS011;18062;48.872;9.220;2024-02-26T10:12:29;2.73;;;1.83;;
31438;SDS011;18062;48.872;9.220;2024-02-26T10:14:56;2.53;;;1.77;;
31438;SDS011;18062;48.872;9.220;2024-02-26T10:17:22;2.13;;;1.70;;
31438;SDS011;18062;48.872;9.220;2024-02-26T10:19:48;4.03;;;1.93;;
31438;SDS011;18062;48.872;9.220;2024-02-26T10:22:16;2.23;;;1.97;;
31438;SDS011;18062;48.872;9.220;2024-02-26T10:24:42;3.70;;;1.90;;
31438;SDS011;18062;48.872;9.220;2024-02-26T10:27:08;2.53;;;2.00;;
31438;SDS011;18062;48.872;9.220;2024-02-26T10:29:35;3.50;;;2.70;;
31438;SDS011;18062;48.872;9.220;2024-02-26T10:32:01;2.37;;;1.90;;
31438;SDS011;18062;48.872;9.220;2024-02-26T10:34:27;1.80;;;1.70;;
31438;SDS011;18062;48.872;9.220;2024-02-26T10:36:54;1.80;;;1.70;;
31438;SDS011;18062;48.872;9.220;2024-02-26T10:39:20;2.47;;;1.93;;
31438;SDS011;18062;48.872;9.220;2024-02-26T10:41:46;1.97;;;1.63;;
31438;SDS011;18062;48.872;9.220;2024-02-26T10:44:12;2.00;;;1.70;;
31438;SDS011;18062;48.872;9.220;2024-02-26T10:46:41;1.77;;;1.40;;
31438;SDS011;18062;48.872;9.220;2024-02-26T10:49:14;1.93;;;1.80;;
31438;SDS011;18062;48.872;9.220;2024-02-26T10:51:43;1.67;;;1.57;;
31438;SDS011;18062;48.872;9.220;2024-02-26T10:54:10;2.38;;;1.80;;
31438;SDS011;18062;48.872;9.220;2024-02-26T10:56:38;2.05;;;1.50;;
31438;SDS011;18062;48.872;9.220;2024-02-26T10:59:06;2.93;;;1.60;;
31438;SDS011;18062;48.872;9.220;2024-02-26T11:01:33;3.07;;;1.60;;
31438;SDS011;18062;48.872;9.220;2024-02-26T11:04:03;2.80;;;1.95;;
31438;SDS011;18062;48.872;9.220;2024-02-26T11:06:29;1.90;;;1.70;;
31438;SDS011;18062;48.872;9.220;2024-02-26T11:08:55;2.67;;;1.77;;
31438;SDS011;18062;48.872;9.220;2024-02-26T11:11:22;2.42;;;1.90;;
31438;SDS011;18062;48.872;9.220;2024-02-26T11:13:48;2.50;;;1.77;;
31438;SDS011;18062;48.872;9.220;2024-02-26T11:16:19;1.73;;;1.63;;
31438;SDS011;18062;48.872;9.220;2024-02-26T11:18:46;1.95;;;1.48;;
31438;SDS011;18062;48.872;9.220;2024-02-26T11:21:16;1.52;;;1.20;;
31438;SDS011;18062;48.872;9.220;2024-02-26T11:23:48;1.52;;;1.30;;
31438;SDS011;18062;48.872;9.220;2024-02-26T11:26:15;1.40;;;1.30;;
31438;SDS011;18062;48.872;9.220;2024-02-26T11:28:42;2.42;;;1.52;;
31438;SDS011;18062;48.872;9.220;2024-02-26T11:31:09;2.00;;;1.60;;
31438;SDS011;18062;48.872;9.220;2024-02-26T11:33:37;2.10;;;1.48;;
31438;SDS011;18062;48.872;9.220;2024-02-26T11:36:07;1.70;;;1.60;;
31438;SDS011;18062;48.872;9.220;2024-02-26T11:38:34;2.65;;;1.60;;
31438;SDS011;18062;48.872;9.220;2024-02-26T11:41:01;1.77;;;1.63;;
31438;SDS011;18062;48.872;9.220;2024-02-26T11:46:24;2.35;;;1.35;;
31438;SDS011;18062;48.872;9.220;2024-02-26T11:48:51;3.28;;;1.50;;
31438;SDS011;18062;48.872;9.220;2024-02-26T11:51:17;1.50;;;1.40;;
31438;SDS011;18062;48.872;9.220;2024-02-26T11:53:46;2.97;;;2.08;;
31438;SDS011;18062;48.872;9.220;2024-02-26T11:58:44;1.60;;;1.42;;
31438;SDS011;18062;48.872;9.220;2024-02-26T12:03:56;2.17;;;1.60;;
31438;SDS011;18062;48.872;9.220;2024-02-26T12:06:22;1.40;;;1.30;;
31438;SDS011;18062;48.872;9.220;2024-02-26T12:08:50;2.08;;;1.55;;
31438;SDS011;18062;48.872;9.220;2024-02-26T12:11:16;1.95;;;1.55;;
31438;SDS011;18062;48.872;9.220;2024-02-26T12:13:45;1.60;;;1.48;;
31438;SDS011;18062;48.872;9.220;2024-02-26T12:16:21;1.63;;;1.53;;
31438;SDS011;18062;48.872;9.220;2024-02-26T12:19:01;1.83;;;1.60;;
31438;SDS011;18062;48.872;9.220;2024-02-26T12:21:27;1.60;;;1.50;;
31438;SDS011;18062;48.872;9.220;2024-02-26T12:23:53;1.80;;;1.30;;
31438;SDS011;18062;48.872;9.220;2024-02-26T12:26:19;1.93;;;1.40;;
31438;SDS011;18062;48.872;9.220;2024-02-26T12:28:46;1.40;;;1.30;;
31438;SDS011;18062;48.872;9.220;2024-02-26T12:31:12;1.50;;;1.40;;
31438;SDS011;18062;48.872;9.220;2024-02-26T12:33:39;2.00;;;1.30;;
31438;SDS011;18062;48.872;9.220;2024-02-26T12:36:05;1.97;;;1.30;;
31438;SDS011;18062;48.872;9.220;2024-02-26T12:38:32;2.00;;;1.37;;
31438;SDS011;18062;48.872;9.220;2024-02-26T12:41:00;3.20;;;1.50;;
31438;SDS011;18062;48.872;9.220;2024-02-26T12:43:26;1.90;;;1.60;;
31438;SDS011;18062;48.872;9.220;2024-02-26T12:45:52;1.53;;;1.43;;
31438;SDS011;18062;48.872;9.220;2024-02-26T12:48:18;1.60;;;1.20;;
31438;SDS011;18062;48.872;9.220;2024-02-26T12:50:45;1.43;;;1.30;;
31438;SDS011;18062;48.872;9.220;2024-02-26T12:53:14;1.20;;;1.07;;
31438;SDS011;18062;48.872;9.220;2024-02-26T12:55:40;1.23;;;1.13;;
31438;SDS011;18062;48.872;9.220;2024-02-26T12:58:07;1.20;;;1.00;;
31438;SDS011;18062;48.872;9.220;2024-02-26T13:00:33;1.17;;;1.07;;
31438;SDS011;18062;48.872;9.220;2024-02-26T13:02:59;2.17;;;1.40;;
31438;SDS011;18062;48.872;9.220;2024-02-26T13:05:26;1.13;;;1.03;;
31438;SDS011;18062;48.872;9.220;2024-02-26T13:07:52;1.50;;;1.20;;
31438;SDS011;18062;48.872;9.220;2024-02-26T13:10:18;1.20;;;1.10;;
31438;SDS011;18062;48.872;9.220;2024-02-26T13:12:48;1.57;;;0.97;;
31438;SDS011;18062;48.872;9.220;2024-02-26T13:15:19;1.30;;;1.20;;
31438;SDS011;18062;48.872;9.220;2024-02-26T13:17:45;0.80;;;0.80;;
31438;SDS011;18062;48.872;9.220;2024-02-26T13:20:12;0.93;;;0.90;;
31438;SDS011;18062;48.872;9.220;2024-02-26T13:22:38;1.53;;;1.20;;
31438;SDS011;18062;48.872;9.220;2024-02-26T13:25:05;0.97;;;0.97;;
31438;SDS011;18062;48.872;9.220;2024-02-26T13:27:34;1.13;;;1.00;;
31438;SDS011;18062;48.872;9.220;2024-02-26T13:30:09;1.07;;;1.00;;
31438;SDS011;18062;48.872;9.220;2024-02-26T13:32:36;1.80;;;0.90;;
31438;SDS011;18062;48.872;9.220;2024-02-26T13:35:09;2.13;;;1.17;;
31438;SDS011;18062;48.872;9.220;2024-02-26T13:37:35;1.57;;;0.90;;
31438;SDS011;18062;48.872;9.220;2024-02-26T13:40:20;0.90;;;0.90;;
31438;SDS011;18062;48.872;9.220;2024-02-26T13:42:46;0.73;;;0.73;;
31438;SDS011;18062;48.872;9.220;2024-02-26T13:45:13;0.80;;;0.80;;
31438;SDS011;18062;48.872;9.220;2024-02-26T13:47:39;1.08;;;0.90;;
31438;SDS011;18062;48.872;9.220;2024-02-26T13:50:06;1.27;;;1.00;;
31438;SDS011;18062;48.872;9.220;2024-02-26T13:52:32;0.90;;;0.75;;
31438;SDS011;18062;48.872;9.220;2024-02-26T13:54:59;0.80;;;0.80;;
31438;SDS011;18062;48.872;9.220;2024-02-26T13:57:25;0.80;;;0.80;;
31438;SDS011;18062;48.872;9.220;2024-02-26T13:59:51;1.10;;;0.80;;
31438;SDS011;18062;48.872;9.220;2024-02-26T14:02:17;1.00;;;0.80;;
31438;SDS011;18062;48.872;9.220;2024-02-26T14:04:43;1.38;;;0.60;;
31438;SDS011;18062;48.872;9.220;2024-02-26T14:07:09;0.77;;;0.70;;
31438;SDS011;18062;48.872;9.220;2024-02-26T14:09:36;0.60;;;0.60;;
31438;SDS011;18062;48.872;9.220;2024-02-26T14:12:02;0.60;;;0.60;;
31438;SDS011;18062;48.872;9.220;2024-02-26T14:14:28;0.82;;;0.70;;
31438;SDS011;18062;48.872;9.220;2024-02-26T14:16:57;1.30;;;0.70;;
31438;SDS011;18062;48.872;9.220;2024-02-26T14:19:23;0.60;;;0.50;;
31438;SDS011;18062;48.872;9.220;2024-02-26T14:21:49;1.48;;;0.73;;
31438;SDS011;18062;48.872;9.220;2024-02-26T14:24:15;0.52;;;0.52;;
31438;SDS011;18062;48.872;9.220;2024-02-26T14:26:41;0.40;;;0.40;;
31438;SDS011;18062;48.872;9.220;2024-02-26T14:29:07;0.40;;;0.40;;
31438;SDS011;18062;48.872;9.220;2024-02-26T14:31:33;0.60;;;0.60;;
31438;SDS011;18062;48.872;9.220;2024-02-26T14:33:59;0.50;;;0.50;;
31438;SDS011;18062;48.872;9.220;2024-02-26T14:36:25;0.50;;;0.50;;
31438;SDS011;18062;48.872;9.220;2024-02-26T14:38:51;0.40;;;0.40;;
31438;SDS011;18062;48.872;9.220;2024-02-26T14:41:17;0.67;;;0.67;;
31438;SDS011;18062;48.872;9.220;2024-02-26T14:43:43;0.50;;;0.50;;
31438;SDS011;18062;48.872;9.220;2024-02-26T14:46:09;0.40;;;0.40;;
31438;SDS011;18062;48.872;9.220;2024-02-26T14:48:35;0.40;;;0.40;;
31438;SDS011;18062;48.872;9.220;2024-02-26T14:51:01;0.43;;;0.43;;
31438;SDS011;18062;48.872;9.220;2024-02-26T14:53:27;2.10;;;0.50;;